sensor_id;sensor_type;location;lat;lon;timestamp;P1;durP1;ratioP1;P2;durP2;ratioP2
77453;SDS011;66538;53.150;18.160;2023-02-22T00:00:56;11.70;;;2.70;;
77453;SDS011;66538;53.150;18.160;2023-02-22T00:03:29;11.10;;;3.00;;
77453;SDS011;66538;53.150;18.160;2023-02-22T00:06:00;13.40;;;3.20;;
77453;SDS011;66538;53.150;18.160;2023-02-22T00:08:33;14.60;;;2.90;;
77453;SDS011;66538;53.150;18.160;2023-02-22T00:11:03;11.60;;;2.60;;
77453;SDS011;66538;53.150;18.160;2023-02-22T00:13:34;14.50;;;3.60;;
77453;SDS011;66538;53.150;18.160;2023-02-22T00:16:02;10.20;;;3.20;;
77453;SDS011;66538;53.150;18.160;2023-02-22T00:18:28;12.10;;;3.50;;
77453;SDS011;66538;53.150;18.160;2023-02-22T00:20:55;7.70;;;2.50;;
77453;SDS011;66538;53.150;18.160;2023-02-22T00:23:27;12.40;;;2.40;;
77453;SDS011;66538;53.150;18.160;2023-02-22T00:28:22;9.80;;;2.50;;
77453;SDS011;66538;53.150;18.160;2023-02-22T00:30:49;8.60;;;2.50;;
77453;SDS011;66538;53.150;18.160;2023-02-22T00:33:20;9.00;;;2.40;;
77453;SDS011;66538;53.150;18.160;2023-02-22T00:35:47;13.60;;;2.40;;
77453;SDS011;66538;53.150;18.160;2023-02-22T00:38:14;11.20;;;2.40;;
77453;SDS011;66538;53.150;18.160;2023-02-22T00:40:43;10.60;;;2.20;;
77453;SDS011;66538;53.150;18.160;2023-02-22T00:43:10;9.00;;;2.00;;
77453;SDS011;66538;53.150;18.160;2023-02-22T00:45:37;10.00;;;2.60;;
77453;SDS011;66538;53.150;18.160;2023-02-22T00:48:04;7.30;;;2.10;;
77453;SDS011;66538;53.150;18.160;2023-02-22T00:50:31;10.00;;;2.10;;
77453;SDS011;66538;53.150;18.160;2023-02-22T00:52:59;9.20;;;2.20;;
77453;SDS011;66538;53.150;18.160;2023-02-22T00:55:27;7.60;;;1.80;;
77453;SDS011;66538;53.150;18.160;2023-02-22T00:57:56;11.90;;;2.40;;
77453;SDS011;66538;53.150;18.160;2023-02-22T01:00:27;9.80;;;2.40;;
77453;SDS011;66538;53.150;18.160;2023-02-22T01:02:56;8.10;;;2.00;;
77453;SDS011;66538;53.150;18.160;2023-02-22T01:05:25;5.90;;;2.10;;
77453;SDS011;66538;53.150;18.160;2023-02-22T01:07:55;9.10;;;2.20;;
77453;SDS011;66538;53.150;18.160;2023-02-22T01:10:24;6.80;;;2.10;;
77453;SDS011;66538;53.150;18.160;2023-02-22T01:12:52;9.30;;;2.70;;
77453;SDS011;66538;53.150;18.160;2023-02-22T01:15:20;11.80;;;3.60;;
77453;SDS011;66538;53.150;18.160;2023-02-22T01:17:50;8.40;;;2.10;;
77453;SDS011;66538;53.150;18.160;2023-02-22T01:20:19;7.70;;;2.40;;
77453;SDS011;66538;53.150;18.160;2023-02-22T01:22:49;8.50;;;2.50;;
77453;SDS011;66538;53.150;18.160;2023-02-22T01:25:18;9.20;;;2.50;;
77453;SDS011;66538;53.150;18.160;2023-02-22T01:27:48;8.30;;;2.40;;
77453;SDS011;66538;53.150;18.160;2023-02-22T01:30:16;9.70;;;2.00;;
77453;SDS011;66538;53.150;18.160;2023-02-22T01:32:47;7.90;;;2.60;;
77453;SDS011;66538;53.150;18.160;2023-02-22T01:35:14;7.20;;;2.30;;
77453;SDS011;66538;53.150;18.160;2023-02-22T01:37:44;7.10;;;2.10;;
77453;SDS011;66538;53.150;18.160;2023-02-22T01:40:16;13.60;;;2.70;;
77453;SDS011;66538;53.150;18.160;2023-02-22T01:42:47;12.60;;;2.30;;
77453;SDS011;66538;53.150;18.160;2023-02-22T01:48:19;9.10;;;2.40;;
77453;SDS011;66538;53.150;18.160;2023-02-22T01:50:47;6.30;;;2.00;;
77453;SDS011;66538;53.150;18.160;2023-02-22T01:53:20;9.40;;;2.60;;
77453;SDS011;66538;53.150;18.160;2023-02-22T01:55:55;7.90;;;2.80;;
77453;SDS011;66538;53.150;18.160;2023-02-22T01:58:23;9.90;;;2.50;;
77453;SDS011;66538;53.150;18.160;2023-02-22T02:03:24;7.20;;;2.40;;
77453;SDS011;66538;53.150;18.160;2023-02-22T02:05:55;6.70;;;2.00;;
77453;SDS011;66538;53.150;18.160;2023-02-22T02:08:30;9.90;;;2.70;;
77453;SDS011;66538;53.150;18.160;2023-02-22T02:11:05;7.40;;;2.40;;
77453;SDS011;66538;53.150;18.160;2023-02-22T02:13:34;7.50;;;2.30;;
77453;SDS011;66538;53.150;18.160;2023-02-22T02:16:01;6.00;;;2.00;;
77453;SDS011;66538;53.150;18.160;2023-02-22T02:18:29;10.60;;;2.40;;
77453;SDS011;66538;53.150;18.160;2023-02-22T02:21:06;8.90;;;3.10;;
77453;SDS011;66538;53.150;18.160;2023-02-22T02:26:57;7.90;;;1.90;;
77453;SDS011;66538;53.150;18.160;2023-02-22T02:29:43;8.80;;;2.70;;
77453;SDS011;66538;53.150;18.160;2023-02-22T02:32:34;7.70;;;2.60;;
77453;SDS011;66538;53.150;18.160;2023-02-22T02:40:59;8.50;;;2.70;;
77453;SDS011;66538;53.150;18.160;2023-02-22T02:43:52;7.80;;;2.70;;
77453;SDS011;66538;53.150;18.160;2023-02-22T02:46:30;11.80;;;2.90;;
77453;SDS011;66538;53.150;18.160;2023-02-22T02:49:02;9.60;;;3.20;;
77453;SDS011;66538;53.150;18.160;2023-02-22T02:51:35;9.20;;;2.30;;
77453;SDS011;66538;53.150;18.160;2023-02-22T02:54:05;9.10;;;2.80;;
77453;SDS011;66538;53.150;18.160;2023-02-22T02:56:34;10.00;;;3.10;;
77453;SDS011;66538;53.150;18.160;2023-02-22T02:59:00;7.30;;;2.80;;
77453;SDS011;66538;53.150;18.160;2023-02-22T03:01:41;10.90;;;3.60;;
77453;SDS011;66538;53.150;18.160;2023-02-22T03:04:23;8.40;;;3.00;;
77453;SDS011;66538;53.150;18.160;2023-02-22T03:09:58;8.70;;;3.20;;
77453;SDS011;66538;53.150;18.160;2023-02-22T03:12:37;7.20;;;2.70;;
77453;SDS011;66538;53.150;18.160;2023-02-22T03:18:41;10.40;;;3.90;;
77453;SDS011;66538;53.150;18.160;2023-02-22T03:24:07;9.20;;;3.60;;
77453;SDS011;66538;53.150;18.160;2023-02-22T03:26:42;9.90;;;3.50;;
77453;SDS011;66538;53.150;18.160;2023-02-22T03:29:16;9.70;;;3.60;;
77453;SDS011;66538;53.150;18.160;2023-02-22T03:34:25;8.80;;;4.50;;
77453;SDS011;66538;53.150;18.160;2023-02-22T03:37:02;10.60;;;4.60;;
77453;SDS011;66538;53.150;18.160;2023-02-22T03:39:34;8.00;;;4.20;;
77453;SDS011;66538;53.150;18.160;2023-02-22T03:42:07;11.10;;;4.70;;
77453;SDS011;66538;53.150;18.160;2023-02-22T03:44:39;13.20;;;5.00;;
77453;SDS011;66538;53.150;18.160;2023-02-22T03:47:10;12.60;;;5.40;;
77453;SDS011;66538;53.150;18.160;2023-02-22T03:49:46;12.20;;;5.40;;
77453;SDS011;66538;53.150;18.160;2023-02-22T03:52:19;12.20;;;6.10;;
77453;SDS011;66538;53.150;18.160;2023-02-22T03:54:51;15.60;;;6.90;;
77453;SDS011;66538;53.150;18.160;2023-02-22T03:57:21;13.20;;;6.00;;
77453;SDS011;66538;53.150;18.160;2023-02-22T04:00:00;9.30;;;4.80;;
77453;SDS011;66538;53.150;18.160;2023-02-22T04:02:27;14.10;;;5.20;;
77453;SDS011;66538;53.150;18.160;2023-02-22T04:04:54;12.40;;;4.80;;
77453;SDS011;66538;53.150;18.160;2023-02-22T04:07:20;12.90;;;5.60;;
77453;SDS011;66538;53.150;18.160;2023-02-22T04:10:06;16.30;;;7.20;;
77453;SDS011;66538;53.150;18.160;2023-02-22T04:12:37;12.60;;;5.20;;
77453;SDS011;66538;53.150;18.160;2023-02-22T04:15:05;13.30;;;5.70;;
77453;SDS011;66538;53.150;18.160;2023-02-22T04:17:34;18.50;;;6.40;;
77453;SDS011;66538;53.150;18.160;2023-02-22T04:20:02;12.70;;;5.40;;
77453;SDS011;66538;53.150;18.160;2023-02-22T04:22:40;14.30;;;5.20;;
77453;SDS011;66538;53.150;18.160;2023-02-22T04:25:07;15.70;;;5.90;;
77453;SDS011;66538;53.150;18.160;2023-02-22T04:27:34;11.40;;;5.20;;
77453;SDS011;66538;53.150;18.160;2023-02-22T04:30:01;13.80;;;5.10;;
77453;SDS011;66538;53.150;18.160;2023-02-22T04:32:29;13.40;;;5.30;;
77453;SDS011;66538;53.150;18.160;2023-02-22T04:34:56;13.80;;;4.90;;
77453;SDS011;66538;53.150;18.160;2023-02-22T04:37:23;11.10;;;5.00;;
77453;SDS011;66538;53.150;18.160;2023-02-22T04:39:49;9.60;;;4.50;;
77453;SDS011;66538;53.150;18.160;2023-02-22T04:42:17;8.40;;;3.70;;
77453;SDS011;66538;53.150;18.160;2023-02-22T04:44:43;12.60;;;5.00;;
77453;SDS011;66538;53.150;18.160;2023-02-22T04:47:10;10.00;;;4.40;;
77453;SDS011;66538;53.150;18.160;2023-02-22T04:49:36;10.20;;;4.40;;
77453;SDS011;66538;53.150;18.160;2023-02-22T04:52:04;10.70;;;4.60;;
77453;SDS011;66538;53.150;18.160;2023-02-22T04:54:34;10.00;;;4.80;;
77453;SDS011;66538;53.150;18.160;2023-02-22T04:57:01;9.90;;;4.30;;
77453;SDS011;66538;53.150;18.160;2023-02-22T04:59:28;13.20;;;4.60;;
77453;SDS011;66538;53.150;18.160;2023-02-22T05:01:59;8.20;;;4.00;;
77453;SDS011;66538;53.150;18.160;2023-02-22T05:04:26;11.90;;;5.20;;
77453;SDS011;66538;53.150;18.160;2023-02-22T05:06:52;12.00;;;4.20;;
77453;SDS011;66538;53.150;18.160;2023-02-22T05:09:19;9.70;;;4.20;;
77453;SDS011;66538;53.150;18.160;2023-02-22T05:11:46;9.90;;;4.30;;
77453;SDS011;66538;53.150;18.160;2023-02-22T05:14:12;11.70;;;4.30;;
77453;SDS011;66538;53.150;18.160;2023-02-22T05:16:39;9.00;;;4.00;;
77453;SDS011;66538;53.150;18.160;2023-02-22T05:19:06;11.30;;;5.20;;
77453;SDS011;66538;53.150;18.160;2023-02-22T05:21:32;11.70;;;5.10;;
77453;SDS011;66538;53.150;18.160;2023-02-22T05:23:59;11.80;;;4.50;;
77453;SDS011;66538;53.150;18.160;2023-02-22T05:26:25;12.40;;;5.50;;
77453;SDS011;66538;53.150;18.160;2023-02-22T05:28:52;14.70;;;5.80;;
77453;SDS011;66538;53.150;18.160;2023-02-22T05:31:19;9.10;;;5.20;;
77453;SDS011;66538;53.150;18.160;2023-02-22T05:33:45;14.90;;;6.00;;
77453;SDS011;66538;53.150;18.160;2023-02-22T05:36:13;10.10;;;4.60;;
77453;SDS011;66538;53.150;18.160;2023-02-22T05:38:41;10.60;;;5.30;;
77453;SDS011;66538;53.150;18.160;2023-02-22T05:41:10;12.50;;;4.40;;
77453;SDS011;66538;53.150;18.160;2023-02-22T05:43:38;12.00;;;5.20;;
77453;SDS011;66538;53.150;18.160;2023-02-22T05:46:06;10.50;;;4.70;;
77453;SDS011;66538;53.150;18.160;2023-02-22T05:48:33;14.20;;;5.70;;
77453;SDS011;66538;53.150;18.160;2023-02-22T05:50:59;9.20;;;4.40;;
77453;SDS011;66538;53.150;18.160;2023-02-22T05:53:26;14.60;;;6.30;;
77453;SDS011;66538;53.150;18.160;2023-02-22T05:55:53;13.10;;;6.40;;
77453;SDS011;66538;53.150;18.160;2023-02-22T05:58:19;11.90;;;5.90;;
77453;SDS011;66538;53.150;18.160;2023-02-22T06:00:47;11.30;;;4.80;;
77453;SDS011;66538;53.150;18.160;2023-02-22T06:03:13;13.20;;;6.50;;
77453;SDS011;66538;53.150;18.160;2023-02-22T06:05:40;15.60;;;6.60;;
77453;SDS011;66538;53.150;18.160;2023-02-22T06:08:07;15.70;;;6.90;;
77453;SDS011;66538;53.150;18.160;2023-02-22T06:10:34;15.50;;;6.30;;
77453;SDS011;66538;53.150;18.160;2023-02-22T06:13:01;13.00;;;5.80;;
77453;SDS011;66538;53.150;18.160;2023-02-22T06:15:29;20.20;;;6.90;;
77453;SDS011;66538;53.150;18.160;2023-02-22T06:17:56;13.30;;;6.50;;
77453;SDS011;66538;53.150;18.160;2023-02-22T06:20:24;41.30;;;16.10;;
77453;SDS011;66538;53.150;18.160;2023-02-22T06:22:53;96.70;;;27.40;;
77453;SDS011;66538;53.150;18.160;2023-02-22T06:25:22;92.70;;;29.10;;
77453;SDS011;66538;53.150;18.160;2023-02-22T06:27:50;79.70;;;26.40;;
77453;SDS011;66538;53.150;18.160;2023-02-22T06:30:19;73.40;;;26.40;;
77453;SDS011;66538;53.150;18.160;2023-02-22T06:32:48;30.20;;;12.00;;
77453;SDS011;66538;53.150;18.160;2023-02-22T06:35:15;37.50;;;14.20;;
77453;SDS011;66538;53.150;18.160;2023-02-22T06:37:41;38.70;;;14.40;;
77453;SDS011;66538;53.150;18.160;2023-02-22T06:40:09;43.60;;;16.40;;
77453;SDS011;66538;53.150;18.160;2023-02-22T06:42:37;45.20;;;17.10;;
77453;SDS011;66538;53.150;18.160;2023-02-22T06:45:04;56.10;;;22.10;;
77453;SDS011;66538;53.150;18.160;2023-02-22T06:47:32;79.40;;;30.00;;
77453;SDS011;66538;53.150;18.160;2023-02-22T06:49:59;51.00;;;17.70;;
77453;SDS011;66538;53.150;18.160;2023-02-22T06:52:26;49.90;;;17.10;;
77453;SDS011;66538;53.150;18.160;2023-02-22T06:54:53;48.90;;;19.30;;
77453;SDS011;66538;53.150;18.160;2023-02-22T06:57:19;48.70;;;19.80;;
77453;SDS011;66538;53.150;18.160;2023-02-22T06:59:46;54.00;;;22.30;;
77453;SDS011;66538;53.150;18.160;2023-02-22T07:02:12;53.00;;;23.30;;
77453;SDS011;66538;53.150;18.160;2023-02-22T07:04:40;47.50;;;20.80;;
77453;SDS011;66538;53.150;18.160;2023-02-22T07:07:06;27.00;;;11.90;;
77453;SDS011;66538;53.150;18.160;2023-02-22T07:09:33;30.20;;;10.50;;
77453;SDS011;66538;53.150;18.160;2023-02-22T07:12:00;37.60;;;13.40;;
77453;SDS011;66538;53.150;18.160;2023-02-22T07:14:26;42.90;;;15.50;;
77453;SDS011;66538;53.150;18.160;2023-02-22T07:16:53;38.10;;;15.40;;
77453;SDS011;66538;53.150;18.160;2023-02-22T07:19:19;38.90;;;15.20;;
77453;SDS011;66538;53.150;18.160;2023-02-22T07:21:46;29.30;;;11.30;;
77453;SDS011;66538;53.150;18.160;2023-02-22T07:24:13;28.40;;;13.60;;
77453;SDS011;66538;53.150;18.160;2023-02-22T07:26:40;32.90;;;12.60;;
77453;SDS011;66538;53.150;18.160;2023-02-22T07:29:07;18.50;;;8.00;;
77453;SDS011;66538;53.150;18.160;2023-02-22T07:31:34;16.70;;;6.70;;
77453;SDS011;66538;53.150;18.160;2023-02-22T07:34:02;12.10;;;6.20;;
77453;SDS011;66538;53.150;18.160;2023-02-22T07:36:29;13.30;;;5.80;;
77453;SDS011;66538;53.150;18.160;2023-02-22T07:38:55;14.40;;;6.40;;
77453;SDS011;66538;53.150;18.160;2023-02-22T07:41:22;16.10;;;7.10;;
77453;SDS011;66538;53.150;18.160;2023-02-22T07:43:49;15.80;;;6.50;;
77453;SDS011;66538;53.150;18.160;2023-02-22T07:46:15;11.00;;;4.90;;
77453;SDS011;66538;53.150;18.160;2023-02-22T07:48:42;11.20;;;5.80;;
77453;SDS011;66538;53.150;18.160;2023-02-22T07:51:09;14.90;;;6.40;;
77453;SDS011;66538;53.150;18.160;2023-02-22T07:53:36;12.10;;;6.20;;
77453;SDS011;66538;53.150;18.160;2023-02-22T07:56:03;13.40;;;6.40;;
77453;SDS011;66538;53.150;18.160;2023-02-22T07:58:31;14.70;;;6.10;;
77453;SDS011;66538;53.150;18.160;2023-02-22T08:00:58;14.20;;;5.60;;
77453;SDS011;66538;53.150;18.160;2023-02-22T08:03:29;14.10;;;5.90;;
77453;SDS011;66538;53.150;18.160;2023-02-22T08:05:59;10.10;;;4.40;;
77453;SDS011;66538;53.150;18.160;2023-02-22T08:08:26;10.90;;;4.70;;
77453;SDS011;66538;53.150;18.160;2023-02-22T08:10:52;13.10;;;5.40;;
77453;SDS011;66538;53.150;18.160;2023-02-22T08:13:19;12.00;;;5.90;;
77453;SDS011;66538;53.150;18.160;2023-02-22T08:15:48;14.40;;;5.90;;
77453;SDS011;66538;53.150;18.160;2023-02-22T08:18:17;11.60;;;5.70;;
77453;SDS011;66538;53.150;18.160;2023-02-22T08:20:45;16.40;;;7.00;;
77453;SDS011;66538;53.150;18.160;2023-02-22T08:23:14;12.20;;;5.80;;
77453;SDS011;66538;53.150;18.160;2023-02-22T08:25:42;11.30;;;5.50;;
77453;SDS011;66538;53.150;18.160;2023-02-22T08:28:09;12.70;;;5.30;;
77453;SDS011;66538;53.150;18.160;2023-02-22T08:30:38;9.90;;;3.70;;
77453;SDS011;66538;53.150;18.160;2023-02-22T08:33:05;12.80;;;4.70;;
77453;SDS011;66538;53.150;18.160;2023-02-22T08:35:32;11.50;;;4.70;;
77453;SDS011;66538;53.150;18.160;2023-02-22T08:38:00;9.80;;;4.40;;
77453;SDS011;66538;53.150;18.160;2023-02-22T08:40:29;7.90;;;3.80;;
77453;SDS011;66538;53.150;18.160;2023-02-22T08:42:57;5.80;;;2.50;;
77453;SDS011;66538;53.150;18.160;2023-02-22T08:45:25;9.80;;;4.50;;
77453;SDS011;66538;53.150;18.160;2023-02-22T08:47:51;7.30;;;2.70;;
77453;SDS011;66538;53.150;18.160;2023-02-22T08:52:50;11.30;;;5.00;;
77453;SDS011;66538;53.150;18.160;2023-02-22T08:55:19;8.20;;;3.90;;
77453;SDS011;66538;53.150;18.160;2023-02-22T08:57:46;10.90;;;3.80;;
77453;SDS011;66538;53.150;18.160;2023-02-22T09:00:14;7.70;;;3.30;;
77453;SDS011;66538;53.150;18.160;2023-02-22T09:02:41;9.10;;;3.20;;
77453;SDS011;66538;53.150;18.160;2023-02-22T09:05:09;6.50;;;2.40;;
77453;SDS011;66538;53.150;18.160;2023-02-22T09:07:36;5.50;;;1.60;;
77453;SDS011;66538;53.150;18.160;2023-02-22T09:10:02;8.80;;;2.80;;
77453;SDS011;66538;53.150;18.160;2023-02-22T09:12:29;5.30;;;1.90;;
77453;SDS011;66538;53.150;18.160;2023-02-22T09:14:56;4.30;;;1.70;;
77453;SDS011;66538;53.150;18.160;2023-02-22T09:17:23;6.00;;;2.20;;
77453;SDS011;66538;53.150;18.160;2023-02-22T09:19:49;5.30;;;1.60;;
77453;SDS011;66538;53.150;18.160;2023-02-22T09:22:16;3.20;;;1.10;;
77453;SDS011;66538;53.150;18.160;2023-02-22T09:24:43;4.60;;;1.50;;
77453;SDS011;66538;53.150;18.160;2023-02-22T09:27:09;4.90;;;1.90;;
77453;SDS011;66538;53.150;18.160;2023-02-22T09:29:37;4.70;;;1.80;;
77453;SDS011;66538;53.150;18.160;2023-02-22T09:32:05;4.50;;;1.70;;
77453;SDS011;66538;53.150;18.160;2023-02-22T09:34:31;3.50;;;1.10;;
77453;SDS011;66538;53.150;18.160;2023-02-22T09:37:00;5.70;;;2.10;;
77453;SDS011;66538;53.150;18.160;2023-02-22T09:39:27;4.70;;;2.00;;
77453;SDS011;66538;53.150;18.160;2023-02-22T09:47:15;6.10;;;2.10;;
77453;SDS011;66538;53.150;18.160;2023-02-22T09:49:58;7.50;;;1.80;;
77453;SDS011;66538;53.150;18.160;2023-02-22T09:52:29;4.60;;;2.10;;
77453;SDS011;66538;53.150;18.160;2023-02-22T09:55:08;8.40;;;3.10;;
77453;SDS011;66538;53.150;18.160;2023-02-22T09:57:43;4.60;;;1.80;;
77453;SDS011;66538;53.150;18.160;2023-02-22T10:02:47;6.30;;;2.50;;
77453;SDS011;66538;53.150;18.160;2023-02-22T10:05:29;4.00;;;1.50;;
77453;SDS011;66538;53.150;18.160;2023-02-22T10:08:00;4.40;;;2.00;;
77453;SDS011;66538;53.150;18.160;2023-02-22T10:10:33;2.90;;;1.10;;
77453;SDS011;66538;53.150;18.160;2023-02-22T10:16:25;2.70;;;1.10;;
77453;SDS011;66538;53.150;18.160;2023-02-22T10:27:36;5.30;;;1.50;;
77453;SDS011;66538;53.150;18.160;2023-02-22T10:30:22;5.40;;;1.90;;
77453;SDS011;66538;53.150;18.160;2023-02-22T10:33:08;4.70;;;2.00;;
77453;SDS011;66538;53.150;18.160;2023-02-22T10:35:40;4.10;;;1.90;;
77453;SDS011;66538;53.150;18.160;2023-02-22T10:38:12;4.30;;;1.70;;
77453;SDS011;66538;53.150;18.160;2023-02-22T10:40:43;3.70;;;1.50;;
77453;SDS011;66538;53.150;18.160;2023-02-22T10:43:16;3.60;;;1.40;;
77453;SDS011;66538;53.150;18.160;2023-02-22T10:45:43;3.60;;;1.50;;
77453;SDS011;66538;53.150;18.160;2023-02-22T10:48:11;3.40;;;1.50;;
77453;SDS011;66538;53.150;18.160;2023-02-22T10:50:44;5.50;;;1.70;;
77453;SDS011;66538;53.150;18.160;2023-02-22T10:53:12;5.70;;;2.20;;
77453;SDS011;66538;53.150;18.160;2023-02-22T10:58:52;5.20;;;2.20;;
77453;SDS011;66538;53.150;18.160;2023-02-22T11:01:21;4.50;;;1.90;;
77453;SDS011;66538;53.150;18.160;2023-02-22T11:03:55;3.80;;;1.50;;
77453;SDS011;66538;53.150;18.160;2023-02-22T11:09:02;3.80;;;1.60;;
77453;SDS011;66538;53.150;18.160;2023-02-22T11:11:35;5.70;;;2.20;;
77453;SDS011;66538;53.150;18.160;2023-02-22T11:14:03;5.50;;;2.30;;
77453;SDS011;66538;53.150;18.160;2023-02-22T11:16:48;5.10;;;2.50;;
77453;SDS011;66538;53.150;18.160;2023-02-22T11:19:19;6.30;;;2.60;;
77453;SDS011;66538;53.150;18.160;2023-02-22T11:21:56;4.80;;;1.90;;
77453;SDS011;66538;53.150;18.160;2023-02-22T11:24:42;6.90;;;2.60;;
77453;SDS011;66538;53.150;18.160;2023-02-22T11:27:20;5.10;;;2.00;;
77453;SDS011;66538;53.150;18.160;2023-02-22T11:29:51;4.20;;;1.40;;
77453;SDS011;66538;53.150;18.160;2023-02-22T11:32:18;5.00;;;1.50;;
77453;SDS011;66538;53.150;18.160;2023-02-22T11:34:47;3.60;;;1.20;;
77453;SDS011;66538;53.150;18.160;2023-02-22T11:39:48;4.60;;;1.20;;
77453;SDS011;66538;53.150;18.160;2023-02-22T11:42:29;3.40;;;1.40;;
77453;SDS011;66538;53.150;18.160;2023-02-22T11:45:06;3.60;;;1.40;;
77453;SDS011;66538;53.150;18.160;2023-02-22T11:47:56;5.00;;;2.60;;
77453;SDS011;66538;53.150;18.160;2023-02-22T11:56:16;4.70;;;1.50;;
77453;SDS011;66538;53.150;18.160;2023-02-22T12:01:49;4.40;;;1.70;;
77453;SDS011;66538;53.150;18.160;2023-02-22T12:12:21;3.60;;;1.30;;
77453;SDS011;66538;53.150;18.160;2023-02-22T12:20:24;3.50;;;1.30;;
77453;SDS011;66538;53.150;18.160;2023-02-22T12:25:33;5.10;;;2.00;;
77453;SDS011;66538;53.150;18.160;2023-02-22T12:28:06;4.50;;;2.30;;
77453;SDS011;66538;53.150;18.160;2023-02-22T12:30:44;4.40;;;1.70;;
77453;SDS011;66538;53.150;18.160;2023-02-22T12:33:24;3.80;;;1.60;;
77453;SDS011;66538;53.150;18.160;2023-02-22T12:35:56;5.30;;;1.90;;
77453;SDS011;66538;53.150;18.160;2023-02-22T12:38:43;6.30;;;2.80;;
77453;SDS011;66538;53.150;18.160;2023-02-22T12:41:21;6.00;;;3.00;;
77453;SDS011;66538;53.150;18.160;2023-02-22T12:44:19;7.60;;;3.50;;
77453;SDS011;66538;53.150;18.160;2023-02-22T12:46:52;7.20;;;3.20;;
77453;SDS011;66538;53.150;18.160;2023-02-22T12:49:39;5.90;;;2.60;;
77453;SDS011;66538;53.150;18.160;2023-02-22T12:57:14;5.80;;;2.50;;
77453;SDS011;66538;53.150;18.160;2023-02-22T12:59:52;4.50;;;2.00;;
77453;SDS011;66538;53.150;18.160;2023-02-22T13:02:27;6.70;;;2.90;;
77453;SDS011;66538;53.150;18.160;2023-02-22T13:04:59;5.90;;;2.60;;
77453;SDS011;66538;53.150;18.160;2023-02-22T13:07:39;5.20;;;2.30;;
77453;SDS011;66538;53.150;18.160;2023-02-22T13:16:19;3.70;;;1.60;;
77453;SDS011;66538;53.150;18.160;2023-02-22T13:19:49;5.40;;;2.90;;
77453;SDS011;66538;53.150;18.160;2023-02-22T13:30:15;4.60;;;2.00;;
77453;SDS011;66538;53.150;18.160;2023-02-22T13:33:16;4.80;;;1.90;;
77453;SDS011;66538;53.150;18.160;2023-02-22T13:36:04;4.60;;;2.20;;
77453;SDS011;66538;53.150;18.160;2023-02-22T13:44:50;4.90;;;2.20;;
77453;SDS011;66538;53.150;18.160;2023-02-22T13:50:32;5.30;;;2.60;;
77453;SDS011;66538;53.150;18.160;2023-02-22T13:53:29;5.70;;;2.50;;
77453;SDS011;66538;53.150;18.160;2023-02-22T13:56:00;5.70;;;2.60;;
77453;SDS011;66538;53.150;18.160;2023-02-22T13:58:27;7.70;;;3.40;;
77453;SDS011;66538;53.150;18.160;2023-02-22T14:00:58;7.60;;;3.90;;
77453;SDS011;66538;53.150;18.160;2023-02-22T14:06:09;5.10;;;2.60;;
77453;SDS011;66538;53.150;18.160;2023-02-22T14:08:56;4.80;;;2.70;;
77453;SDS011;66538;53.150;18.160;2023-02-22T14:16:27;5.90;;;2.60;;
77453;SDS011;66538;53.150;18.160;2023-02-22T14:21:56;6.80;;;3.90;;
77453;SDS011;66538;53.150;18.160;2023-02-22T14:24:27;6.40;;;3.10;;
77453;SDS011;66538;53.150;18.160;2023-02-22T14:26:59;14.40;;;8.60;;
77453;SDS011;66538;53.150;18.160;2023-02-22T14:29:29;16.20;;;10.90;;
77453;SDS011;66538;53.150;18.160;2023-02-22T14:31:58;7.20;;;3.30;;
77453;SDS011;66538;53.150;18.160;2023-02-22T14:34:49;5.60;;;3.20;;
77453;SDS011;66538;53.150;18.160;2023-02-22T14:37:54;8.80;;;4.70;;
77453;SDS011;66538;53.150;18.160;2023-02-22T14:43:13;5.80;;;3.00;;
77453;SDS011;66538;53.150;18.160;2023-02-22T14:46:02;6.30;;;3.50;;
77453;SDS011;66538;53.150;18.160;2023-02-22T14:56:54;5.70;;;2.70;;
77453;SDS011;66538;53.150;18.160;2023-02-22T14:59:45;7.20;;;2.90;;
77453;SDS011;66538;53.150;18.160;2023-02-22T15:02:36;5.90;;;3.10;;
77453;SDS011;66538;53.150;18.160;2023-02-22T15:05:06;6.20;;;2.60;;
77453;SDS011;66538;53.150;18.160;2023-02-22T15:07:33;6.00;;;2.70;;
77453;SDS011;66538;53.150;18.160;2023-02-22T15:15:36;6.10;;;2.70;;
77453;SDS011;66538;53.150;18.160;2023-02-22T15:18:06;5.70;;;2.50;;
77453;SDS011;66538;53.150;18.160;2023-02-22T15:20:42;9.30;;;4.50;;
77453;SDS011;66538;53.150;18.160;2023-02-22T15:23:14;7.70;;;2.90;;
77453;SDS011;66538;53.150;18.160;2023-02-22T15:28:13;6.50;;;2.80;;
77453;SDS011;66538;53.150;18.160;2023-02-22T15:30:41;5.40;;;2.40;;
77453;SDS011;66538;53.150;18.160;2023-02-22T15:33:12;6.70;;;2.60;;
77453;SDS011;66538;53.150;18.160;2023-02-22T15:35:53;7.10;;;3.50;;
77453;SDS011;66538;53.150;18.160;2023-02-22T15:38:25;8.70;;;4.20;;
77453;SDS011;66538;53.150;18.160;2023-02-22T15:41:01;8.10;;;3.60;;
77453;SDS011;66538;53.150;18.160;2023-02-22T15:43:30;13.00;;;5.80;;
77453;SDS011;66538;53.150;18.160;2023-02-22T15:45:58;11.10;;;4.40;;
77453;SDS011;66538;53.150;18.160;2023-02-22T15:48:26;21.00;;;10.40;;
77453;SDS011;66538;53.150;18.160;2023-02-22T15:56:31;9.40;;;3.40;;
77453;SDS011;66538;53.150;18.160;2023-02-22T15:59:11;8.00;;;3.90;;
77453;SDS011;66538;53.150;18.160;2023-02-22T16:01:40;10.10;;;3.60;;
77453;SDS011;66538;53.150;18.160;2023-02-22T16:04:15;9.90;;;4.70;;
77453;SDS011;66538;53.150;18.160;2023-02-22T16:06:44;12.90;;;4.80;;
77453;SDS011;66538;53.150;18.160;2023-02-22T16:11:42;9.10;;;3.70;;
77453;SDS011;66538;53.150;18.160;2023-02-22T16:19:53;11.50;;;4.70;;
77453;SDS011;66538;53.150;18.160;2023-02-22T16:24:53;9.60;;;3.80;;
77453;SDS011;66538;53.150;18.160;2023-02-22T16:27:22;15.30;;;6.30;;
77453;SDS011;66538;53.150;18.160;2023-02-22T16:32:32;17.10;;;6.50;;
77453;SDS011;66538;53.150;18.160;2023-02-22T16:34:59;14.80;;;6.40;;
77453;SDS011;66538;53.150;18.160;2023-02-22T16:37:28;16.40;;;7.20;;
77453;SDS011;66538;53.150;18.160;2023-02-22T16:39:55;12.10;;;4.30;;
77453;SDS011;66538;53.150;18.160;2023-02-22T16:42:22;8.70;;;4.00;;
77453;SDS011;66538;53.150;18.160;2023-02-22T16:44:51;9.50;;;4.00;;
77453;SDS011;66538;53.150;18.160;2023-02-22T16:47:18;11.80;;;4.10;;
77453;SDS011;66538;53.150;18.160;2023-02-22T16:49:49;12.10;;;5.20;;
77453;SDS011;66538;53.150;18.160;2023-02-22T16:55:18;13.90;;;6.40;;
77453;SDS011;66538;53.150;18.160;2023-02-22T16:57:46;11.30;;;4.60;;
77453;SDS011;66538;53.150;18.160;2023-02-22T17:02:43;10.70;;;4.30;;
77453;SDS011;66538;53.150;18.160;2023-02-22T17:05:14;12.00;;;4.50;;
77453;SDS011;66538;53.150;18.160;2023-02-22T17:07:41;9.50;;;4.00;;
77453;SDS011;66538;53.150;18.160;2023-02-22T17:10:13;10.20;;;4.00;;
77453;SDS011;66538;53.150;18.160;2023-02-22T17:12:45;10.60;;;4.10;;
77453;SDS011;66538;53.150;18.160;2023-02-22T17:15:21;13.50;;;4.90;;
77453;SDS011;66538;53.150;18.160;2023-02-22T17:17:53;13.60;;;5.30;;
77453;SDS011;66538;53.150;18.160;2023-02-22T17:20:21;13.60;;;5.60;;
77453;SDS011;66538;53.150;18.160;2023-02-22T17:22:58;16.10;;;6.60;;
77453;SDS011;66538;53.150;18.160;2023-02-22T17:25:31;14.50;;;5.50;;
77453;SDS011;66538;53.150;18.160;2023-02-22T17:28:04;13.60;;;5.40;;
77453;SDS011;66538;53.150;18.160;2023-02-22T17:30:32;12.00;;;4.90;;
77453;SDS011;66538;53.150;18.160;2023-02-22T17:35:32;9.50;;;3.60;;
77453;SDS011;66538;53.150;18.160;2023-02-22T17:38:00;6.40;;;2.70;;
77453;SDS011;66538;53.150;18.160;2023-02-22T17:40:31;12.60;;;4.80;;